createdAt,value
2018-10-09T00:00:26.837Z,13.48
2018-10-09T00:01:30.243Z,12.35
2018-10-09T00:02:33.628Z,12.65
2018-10-09T00:03:37.015Z,14.80
2018-10-09T00:04:40.443Z,14.60
2018-10-09T00:05:43.833Z,12.78
2018-10-09T00:06:47.236Z,15.35
2018-10-09T00:07:50.647Z,18.40
2018-10-09T00:08:54.058Z,18.25
2018-10-09T00:09:57.445Z,17.73
2018-10-09T00:11:00.822Z,15.72
2018-10-09T00:12:04.208Z,26.40
2018-10-09T00:13:07.592Z,16.82
2018-10-09T00:14:10.977Z,18.32
2018-10-09T00:15:14.335Z,16.55
2018-10-09T00:16:17.724Z,15.90
2018-10-09T00:17:21.141Z,13.40
2018-10-09T00:18:24.536Z,13.45
2018-10-09T00:19:27.931Z,13.85
2018-10-09T00:20:31.319Z,16.30
2018-10-09T00:21:34.704Z,17.95
2018-10-09T00:22:38.158Z,18.00
2018-10-09T00:23:41.547Z,21.70
2018-10-09T00:24:44.955Z,17.82
2018-10-09T00:25:48.362Z,14.73
2018-10-09T00:26:51.736Z,15.08
2018-10-09T00:27:55.770Z,13.95
2018-10-09T00:28:59.251Z,14.65
2018-10-09T00:30:02.622Z,15.28
2018-10-09T00:31:06.032Z,15.08
2018-10-09T00:32:09.460Z,12.50
2018-10-09T00:33:12.846Z,21.60
2018-10-09T00:34:16.255Z,18.17
2018-10-09T00:35:19.624Z,11.85
2018-10-09T00:36:23.010Z,16.55
2018-10-09T00:37:26.391Z,12.20
2018-10-09T00:38:29.803Z,10.88
2018-10-09T00:39:33.320Z,11.83
2018-10-09T00:40:36.735Z,10.08
2018-10-09T00:41:40.280Z,10.60
2018-10-09T00:42:43.647Z,13.13
2018-10-09T00:43:47.085Z,12.20
2018-10-09T00:44:50.490Z,10.60
2018-10-09T00:45:53.877Z,11.80
2018-10-09T00:46:57.235Z,15.60
2018-10-09T00:48:00.637Z,17.00
2018-10-09T00:49:04.016Z,12.88
2018-10-09T00:50:07.891Z,14.73
2018-10-09T00:51:11.334Z,14.55
2018-10-09T00:52:14.756Z,12.85
2018-10-09T00:53:18.227Z,12.75
2018-10-09T00:54:21.617Z,15.78
2018-10-09T00:55:24.983Z,14.93
2018-10-09T00:56:28.391Z,15.08
2018-10-09T00:57:31.788Z,11.15
2018-10-09T00:58:35.196Z,15.72
2018-10-09T00:59:38.608Z,10.32
2018-10-09T01:00:42.037Z,11.15
2018-10-09T01:01:45.428Z,11.38
2018-10-09T01:02:48.798Z,9.83
2018-10-09T01:03:52.297Z,12.58
2018-10-09T01:04:55.695Z,9.78
2018-10-09T01:05:59.094Z,8.30
2018-10-09T01:07:02.544Z,9.43
2018-10-09T01:08:06.079Z,14.87
2018-10-09T01:09:09.849Z,10.20
2018-10-09T01:10:13.260Z,12.30
2018-10-09T01:11:16.613Z,7.30
2018-10-09T01:12:19.988Z,11.55
2018-10-09T01:13:23.375Z,15.48
2018-10-09T01:14:26.777Z,14.75
2018-10-09T01:15:30.259Z,10.72
2018-10-09T01:16:33.637Z,10.48
2018-10-09T01:17:37.028Z,13.45
2018-10-09T01:18:40.411Z,12.80
2018-10-09T01:19:43.839Z,13.10
2018-10-09T01:20:47.285Z,11.73
2018-10-09T01:21:50.670Z,10.30
2018-10-09T01:22:54.132Z,14.03
2018-10-09T01:23:57.626Z,12.73
2018-10-09T01:25:01.092Z,16.07
2018-10-09T01:26:04.467Z,12.78
2018-10-09T01:27:08.429Z,11.45
2018-10-09T01:28:11.855Z,9.88
2018-10-09T01:29:15.720Z,12.10
2018-10-09T01:30:19.137Z,17.75
2018-10-09T01:31:22.524Z,23.70
2018-10-09T01:32:25.919Z,26.20
2018-10-09T01:33:29.301Z,20.30
2018-10-09T01:34:32.853Z,20.90
2018-10-09T01:35:36.259Z,22.77
2018-10-09T01:36:39.664Z,21.80
2018-10-09T01:37:43.058Z,19.35
2018-10-09T01:38:46.445Z,11.28
2018-10-09T01:39:50.088Z,16.15
2018-10-09T01:40:53.476Z,12.15
2018-10-09T01:41:56.859Z,11.28
2018-10-09T01:43:00.223Z,9.68
2018-10-09T01:44:03.611Z,10.68
2018-10-09T01:45:07.002Z,12.20
2018-10-09T01:46:10.469Z,9.85
2018-10-09T01:47:13.886Z,15.68
2018-10-09T01:48:17.271Z,10.58
2018-10-09T01:49:20.664Z,10.28
2018-10-09T01:50:24.032Z,10.10
2018-10-09T01:51:27.435Z,11.15
2018-10-09T01:52:30.828Z,10.48
2018-10-09T01:53:34.260Z,13.08
2018-10-09T01:54:37.647Z,9.63
2018-10-09T01:55:41.030Z,11.78
2018-10-09T01:56:44.449Z,9.93
2018-10-09T01:57:47.880Z,11.93
2018-10-09T01:58:51.301Z,13.60
2018-10-09T01:59:54.688Z,14.68
2018-10-09T02:00:58.070Z,22.98
2018-10-09T02:02:01.484Z,19.48
2018-10-09T02:03:04.851Z,21.48
2018-10-09T02:04:08.288Z,17.90
2018-10-09T02:05:11.692Z,16.02
2018-10-09T02:06:15.088Z,19.42
2018-10-09T02:07:18.560Z,21.02
2018-10-09T02:08:21.957Z,19.02
2018-10-09T02:09:25.357Z,12.28
2018-10-09T02:10:28.738Z,15.23
2018-10-09T02:11:32.105Z,17.98
2018-10-09T02:12:35.524Z,15.23
2018-10-09T02:13:39.025Z,12.88
2018-10-09T02:14:42.484Z,14.75
2018-10-09T02:15:45.864Z,18.85
2018-10-09T02:16:49.279Z,21.57
2018-10-09T02:17:52.701Z,19.05
2018-10-09T02:18:56.092Z,19.45
2018-10-09T02:19:59.523Z,12.68
2018-10-09T02:21:02.888Z,15.72
2018-10-09T02:22:06.296Z,11.08
2018-10-09T02:23:09.720Z,10.08
2018-10-09T02:24:13.087Z,9.38
2018-10-09T02:25:16.535Z,8.68
2018-10-09T02:26:19.912Z,9.25
2018-10-09T02:27:23.268Z,9.98
2018-10-09T02:28:26.669Z,8.00
2018-10-09T02:29:30.071Z,10.10
2018-10-09T02:30:33.478Z,9.53
2018-10-09T02:31:36.860Z,12.35
2018-10-09T02:32:40.236Z,10.08
2018-10-09T02:33:43.669Z,8.73
2018-10-09T02:34:47.063Z,8.58
2018-10-09T02:35:50.543Z,11.08
2018-10-09T02:36:53.919Z,9.25
2018-10-09T02:37:57.272Z,8.98
2018-10-09T02:39:00.696Z,7.70
2018-10-09T02:40:04.252Z,9.95
2018-10-09T02:41:07.611Z,8.55
2018-10-09T02:42:11.019Z,10.30
2018-10-09T02:43:14.421Z,9.08
2018-10-09T02:44:17.817Z,9.65
2018-10-09T02:45:21.184Z,8.23
2018-10-09T02:46:24.604Z,9.98
2018-10-09T02:47:27.980Z,10.95
2018-10-09T02:48:31.383Z,9.95
2018-10-09T02:49:34.794Z,10.55
2018-10-09T02:50:38.203Z,10.68
2018-10-09T02:51:41.587Z,12.03
2018-10-09T02:52:44.960Z,11.05
2018-10-09T02:53:48.332Z,11.80
2018-10-09T02:54:51.748Z,12.82
2018-10-09T02:55:55.148Z,12.93
2018-10-09T02:56:58.567Z,10.15
2018-10-09T02:58:01.951Z,12.07
2018-10-09T02:59:05.508Z,9.73
2018-10-09T03:00:09.153Z,6.62
2018-10-09T03:01:12.522Z,9.98
2018-10-09T03:02:15.904Z,6.53
2018-10-09T03:03:19.255Z,7.47
2018-10-09T03:04:22.688Z,10.38
2018-10-09T03:05:26.131Z,11.22
2018-10-09T03:06:29.516Z,10.68
2018-10-09T03:07:32.879Z,9.90
2018-10-09T03:08:36.273Z,10.48
2018-10-09T03:09:39.740Z,11.97
2018-10-09T03:10:43.131Z,7.25
2018-10-09T03:11:46.500Z,9.03
2018-10-09T03:12:49.892Z,8.15
2018-10-09T03:13:53.300Z,8.70
2018-10-09T03:14:56.737Z,7.87
2018-10-09T03:16:00.176Z,7.95
2018-10-09T03:17:03.575Z,7.37
2018-10-09T03:18:06.951Z,9.05
2018-10-09T03:19:10.588Z,7.17
2018-10-09T03:20:13.996Z,9.58
2018-10-09T03:21:17.363Z,8.50
2018-10-09T03:22:21.319Z,7.87
2018-10-09T03:23:24.889Z,8.38
2018-10-09T03:24:28.248Z,8.28
2018-10-09T03:25:31.661Z,7.22
2018-10-09T03:26:35.060Z,8.55
2018-10-09T03:27:38.432Z,9.98
2018-10-09T03:28:41.809Z,8.35
2018-10-09T03:29:45.175Z,6.67
2018-10-09T03:30:48.583Z,7.70
2018-10-09T03:31:52.058Z,10.10
2018-10-09T03:32:55.436Z,7.20
2018-10-09T03:33:58.928Z,8.08
2018-10-09T03:35:02.308Z,7.58
2018-10-09T03:36:05.908Z,8.03
2018-10-09T03:37:09.275Z,6.22
2018-10-09T03:38:12.659Z,6.97
2018-10-09T03:39:16.018Z,7.30
2018-10-09T03:40:19.444Z,7.45
2018-10-09T03:41:22.835Z,7.72
2018-10-09T03:42:26.232Z,7.80
2018-10-09T03:43:29.604Z,8.85
2018-10-09T03:44:33.025Z,7.22
2018-10-09T03:45:36.572Z,8.33
2018-10-09T03:46:40.026Z,6.87
2018-10-09T03:47:43.408Z,10.48
2018-10-09T03:48:46.868Z,12.50
2018-10-09T03:49:50.319Z,9.28
2018-10-09T03:50:53.714Z,7.50
2018-10-09T03:51:57.096Z,7.78
2018-10-09T03:53:00.465Z,8.85
2018-10-09T03:54:03.848Z,9.63
2018-10-09T03:55:07.224Z,7.35
2018-10-09T03:56:10.599Z,8.50
2018-10-09T03:57:14.384Z,7.97
2018-10-09T03:58:17.752Z,7.53
2018-10-09T03:59:21.123Z,8.10
2018-10-09T04:00:24.512Z,7.75
2018-10-09T04:01:27.965Z,8.48
2018-10-09T04:02:31.348Z,8.45
2018-10-09T04:03:34.735Z,10.75
2018-10-09T04:04:38.232Z,9.05
2018-10-09T04:05:41.639Z,9.38
2018-10-09T04:06:45.012Z,6.42
2018-10-09T04:07:48.411Z,8.05
2018-10-09T04:08:51.808Z,7.75
2018-10-09T04:09:55.211Z,7.60
2018-10-09T04:10:58.751Z,8.05
2018-10-09T04:12:02.118Z,7.55
2018-10-09T04:13:05.893Z,8.53
2018-10-09T04:14:09.280Z,7.08
2018-10-09T04:15:12.739Z,7.22
2018-10-09T04:16:16.167Z,7.78
2018-10-09T04:17:19.540Z,8.70
2018-10-09T04:18:22.955Z,12.18
2018-10-09T04:19:26.370Z,9.93
2018-10-09T04:20:29.727Z,16.62
2018-10-09T04:21:33.091Z,17.60
2018-10-09T04:22:36.524Z,17.90
2018-10-09T04:23:40.132Z,25.05
2018-10-09T04:24:43.588Z,20.97
2018-10-09T04:25:46.948Z,11.18
2018-10-09T04:26:50.351Z,8.48
2018-10-09T04:27:53.722Z,7.15
2018-10-09T04:28:57.180Z,9.40
2018-10-09T04:30:00.562Z,10.30
2018-10-09T04:31:04.204Z,7.28
2018-10-09T04:32:07.587Z,8.25
2018-10-09T04:33:11.040Z,8.60
2018-10-09T04:34:14.422Z,9.95
2018-10-09T04:35:17.892Z,10.82
2018-10-09T04:36:21.192Z,7.72
2018-10-09T04:37:24.723Z,8.58
2018-10-09T04:38:28.139Z,9.40
2018-10-09T04:39:31.536Z,20.50
2018-10-09T04:40:34.936Z,22.85
2018-10-09T04:41:38.472Z,10.68
2018-10-09T04:42:41.856Z,10.43
2018-10-09T04:43:45.243Z,12.25
2018-10-09T04:44:48.739Z,10.63
2018-10-09T04:45:52.096Z,8.03
2018-10-09T04:46:55.459Z,14.45
2018-10-09T04:48:00.171Z,11.88
2018-10-09T04:49:03.756Z,10.08
2018-10-09T04:50:07.557Z,10.93
2018-10-09T04:51:10.984Z,41.68
2018-10-09T04:52:14.359Z,18.15
2018-10-09T04:53:17.775Z,10.00
2018-10-09T04:54:21.160Z,9.93
2018-10-09T04:55:24.564Z,7.60
2018-10-09T04:56:27.932Z,10.05
2018-10-09T04:57:31.400Z,8.30
2018-10-09T04:58:34.775Z,12.23
2018-10-09T04:59:38.159Z,7.05
2018-10-09T05:00:41.623Z,9.93
2018-10-09T05:01:44.964Z,9.23
2018-10-09T05:02:48.341Z,12.07
2018-10-09T05:03:51.699Z,11.05
2018-10-09T05:04:55.083Z,9.45
2018-10-09T05:05:58.513Z,9.05
2018-10-09T05:07:01.921Z,9.30
2018-10-09T05:08:05.308Z,9.33
2018-10-09T05:09:10.188Z,9.98
2018-10-09T05:10:13.564Z,9.83
2018-10-09T05:11:16.952Z,9.60
2018-10-09T05:12:20.339Z,9.78
2018-10-09T05:13:23.722Z,7.37
2018-10-09T05:14:27.115Z,11.78
2018-10-09T05:15:30.481Z,11.08
2018-10-09T05:16:33.885Z,10.08
2018-10-09T05:17:37.824Z,8.93
2018-10-09T05:18:41.166Z,8.53
2018-10-09T05:19:44.540Z,10.90
2018-10-09T05:20:47.997Z,10.30
2018-10-09T05:21:51.402Z,12.20
2018-10-09T05:22:54.769Z,10.60
2018-10-09T05:23:58.491Z,11.53
2018-10-09T05:25:01.860Z,8.00
2018-10-09T05:26:05.279Z,9.45
2018-10-09T05:27:08.705Z,11.43
2018-10-09T05:28:12.104Z,13.25
2018-10-09T05:29:15.472Z,10.18
2018-10-09T05:30:18.863Z,9.93
2018-10-09T05:31:22.334Z,10.58
2018-10-09T05:32:26.535Z,10.18
2018-10-09T05:33:30.116Z,12.63
2018-10-09T05:34:33.560Z,12.82
2018-10-09T05:35:36.964Z,9.60
2018-10-09T05:36:40.327Z,9.80
2018-10-09T05:37:43.815Z,7.95
2018-10-09T05:38:47.203Z,9.00
2018-10-09T05:39:50.588Z,10.03
2018-10-09T05:40:53.959Z,10.45
2018-10-09T05:41:57.412Z,12.78
2018-10-09T05:43:00.831Z,11.57
2018-10-09T05:44:04.429Z,8.73
2018-10-09T05:45:08.067Z,8.53
2018-10-09T05:46:11.568Z,9.05
2018-10-09T05:47:15.039Z,8.48
2018-10-09T05:48:18.508Z,10.38
2018-10-09T05:49:21.935Z,8.68
2018-10-09T05:50:25.303Z,9.73
2018-10-09T05:51:28.751Z,9.65
2018-10-09T05:52:32.185Z,9.63
2018-10-09T05:53:35.676Z,10.05
2018-10-09T05:54:39.786Z,12.75
2018-10-09T05:55:43.152Z,10.23
2018-10-09T05:56:46.628Z,12.60
2018-10-09T05:57:50.104Z,10.72
2018-10-09T05:58:53.587Z,12.28
2018-10-09T05:59:57.006Z,10.48
2018-10-09T06:01:00.654Z,12.18
2018-10-09T06:02:04.235Z,12.65
2018-10-09T06:03:07.835Z,10.55
2018-10-09T06:04:11.583Z,8.98
2018-10-09T06:05:15.087Z,11.40
2018-10-09T06:06:18.574Z,14.58
2018-10-09T06:07:22.224Z,9.88
2018-10-09T06:08:25.756Z,9.28
2018-10-09T06:09:29.176Z,12.33
2018-10-09T06:10:32.540Z,9.18
2018-10-09T06:11:37.583Z,10.15
2018-10-09T06:12:41.071Z,11.57
2018-10-09T06:13:44.518Z,11.53
2018-10-09T06:14:48.055Z,13.93
2018-10-09T06:15:51.783Z,12.28
2018-10-09T06:16:55.180Z,13.70
2018-10-09T06:17:58.631Z,11.63
2018-10-09T06:19:02.066Z,14.30
2018-10-09T06:20:05.920Z,14.10
2018-10-09T06:21:09.290Z,16.80
2018-10-09T06:22:12.731Z,13.15
2018-10-09T06:23:16.192Z,12.18
2018-10-09T06:24:19.921Z,11.73
2018-10-09T06:25:23.351Z,13.85
2018-10-09T06:26:26.727Z,12.75
2018-10-09T06:27:30.580Z,11.33
2018-10-09T06:28:34.006Z,11.75
2018-10-09T06:29:37.369Z,10.98
2018-10-09T06:30:40.768Z,14.15
2018-10-09T06:31:44.192Z,12.58
2018-10-09T06:32:47.580Z,14.40
2018-10-09T06:33:50.986Z,12.28
2018-10-09T06:34:54.353Z,12.60
2018-10-09T06:35:58.196Z,12.78
2018-10-09T06:37:01.589Z,10.65
2018-10-09T06:38:05.067Z,11.93
2018-10-09T06:39:10.328Z,12.33
2018-10-09T06:40:13.764Z,10.78
2018-10-09T06:41:17.376Z,14.00
2018-10-09T06:42:20.774Z,11.50
2018-10-09T06:43:24.180Z,12.05
2018-10-09T06:44:27.554Z,13.28
2018-10-09T06:45:30.980Z,12.25
2018-10-09T06:46:34.367Z,12.50
2018-10-09T06:47:38.191Z,11.08
2018-10-09T06:48:41.597Z,10.30
2018-10-09T06:49:44.963Z,12.58
2018-10-09T06:50:48.347Z,11.03
2018-10-09T06:51:51.751Z,11.90
2018-10-09T06:52:55.119Z,14.00
2018-10-09T06:53:58.663Z,18.40
2018-10-09T06:55:01.929Z,22.58
2018-10-09T06:56:05.368Z,31.12
2018-10-09T06:57:08.759Z,26.17
2018-10-09T06:58:12.252Z,28.02
2018-10-09T06:59:15.624Z,24.15
2018-10-09T07:00:19.163Z,14.25
2018-10-09T07:01:22.652Z,11.30
2018-10-09T07:02:26.040Z,10.10
2018-10-09T07:03:29.425Z,12.03
2018-10-09T07:04:32.922Z,14.20
2018-10-09T07:05:36.317Z,13.15
2018-10-09T07:06:39.725Z,10.98
2018-10-09T07:07:43.117Z,9.95
2018-10-09T07:08:46.505Z,16.42
2018-10-09T07:09:49.908Z,11.65
2018-10-09T07:10:53.317Z,11.65
2018-10-09T07:11:58.008Z,13.78
2018-10-09T07:13:04.985Z,12.13
2018-10-09T07:14:08.481Z,11.80
2018-10-09T07:15:11.956Z,11.33
2018-10-09T07:16:15.545Z,11.93
2018-10-09T07:17:25.463Z,13.68
2018-10-09T07:18:28.844Z,15.00
2018-10-09T07:19:32.240Z,10.90
2018-10-09T07:20:35.615Z,13.43
2018-10-09T07:21:39.184Z,13.60
2018-10-09T07:22:42.612Z,11.48
2018-10-09T07:23:46.517Z,10.72
2018-10-09T07:24:53.698Z,9.88
2018-10-09T07:25:57.213Z,11.53
2018-10-09T07:27:00.602Z,13.88
2018-10-09T07:28:04.533Z,12.03
2018-10-09T07:29:07.934Z,12.10
2018-10-09T07:30:13.372Z,11.68
2018-10-09T07:31:16.730Z,13.58
2018-10-09T07:32:20.111Z,13.78
2018-10-09T07:33:23.520Z,10.58
2018-10-09T07:34:26.897Z,10.38
2018-10-09T07:35:30.358Z,15.48
2018-10-09T07:36:33.757Z,11.20
2018-10-09T07:37:37.213Z,12.40
2018-10-09T07:38:40.672Z,12.65
2018-10-09T07:39:44.061Z,10.58
2018-10-09T07:40:47.433Z,13.05
2018-10-09T07:41:50.828Z,14.85
2018-10-09T07:42:54.204Z,15.88
2018-10-09T07:43:57.880Z,13.32
2018-10-09T07:45:01.365Z,12.50
2018-10-09T07:46:04.878Z,15.03
2018-10-09T07:47:08.504Z,11.10
2018-10-09T07:48:11.919Z,12.33
2018-10-09T07:49:15.313Z,11.97
2018-10-09T07:50:18.732Z,12.45
2018-10-09T07:51:22.187Z,10.38
2018-10-09T07:52:25.572Z,10.40
2018-10-09T07:53:28.955Z,13.00
2018-10-09T07:54:32.398Z,13.45
2018-10-09T07:55:35.830Z,14.73
2018-10-09T07:56:39.248Z,12.03
2018-10-09T07:57:42.652Z,13.50
2018-10-09T07:58:46.082Z,12.58
2018-10-09T07:59:49.654Z,12.15
2018-10-09T08:00:53.062Z,14.25
2018-10-09T08:01:56.597Z,12.00
2018-10-09T08:03:00.046Z,13.75
2018-10-09T08:04:03.488Z,14.47
2018-10-09T08:05:06.905Z,14.07
2018-10-09T08:06:10.276Z,13.08
2018-10-09T08:07:13.775Z,13.70
2018-10-09T08:08:17.577Z,13.45
2018-10-09T08:09:20.981Z,14.83
2018-10-09T08:10:24.465Z,12.47
2018-10-09T08:11:27.810Z,15.43
2018-10-09T08:12:31.194Z,14.47
2018-10-09T08:13:34.578Z,10.80
2018-10-09T08:14:38.160Z,15.75
2018-10-09T08:15:41.573Z,13.75
2018-10-09T08:16:44.972Z,12.85
2018-10-09T08:17:48.343Z,14.47
2018-10-09T08:18:51.724Z,12.43
2018-10-09T08:19:55.113Z,14.13
2018-10-09T08:20:58.777Z,13.48
2018-10-09T08:22:02.161Z,12.45
2018-10-09T08:23:05.582Z,15.63
2018-10-09T08:24:08.950Z,13.90
2018-10-09T08:25:12.488Z,13.40
2018-10-09T08:26:15.968Z,13.62
2018-10-09T08:27:19.351Z,14.55
2018-10-09T08:28:22.871Z,15.58
2018-10-09T08:29:26.263Z,13.18
2018-10-09T08:30:29.688Z,14.28
2018-10-09T08:31:33.140Z,13.45
2018-10-09T08:32:36.517Z,11.93
2018-10-09T08:33:39.944Z,12.45
2018-10-09T08:34:43.517Z,17.12
2018-10-09T08:35:46.953Z,10.93
2018-10-09T08:36:50.517Z,14.98
2018-10-09T08:37:53.868Z,22.62
2018-10-09T08:38:57.248Z,13.30
2018-10-09T08:40:00.674Z,17.90
2018-10-09T08:41:04.061Z,14.90
2018-10-09T08:42:07.643Z,13.38
2018-10-09T08:43:11.032Z,14.80
2018-10-09T08:44:14.425Z,15.15
2018-10-09T08:45:17.808Z,18.77
2018-10-09T08:46:21.270Z,16.57
2018-10-09T08:47:25.517Z,14.10
2018-10-09T08:48:28.922Z,17.57
2018-10-09T08:49:32.305Z,18.45
2018-10-09T08:50:35.678Z,17.45
2018-10-09T08:51:39.147Z,16.35
2018-10-09T08:52:42.644Z,14.00
2018-10-09T08:53:46.052Z,13.68
2018-10-09T08:54:49.485Z,19.02
2018-10-09T08:55:52.888Z,13.28
2018-10-09T08:56:56.273Z,16.32
2018-10-09T08:57:59.706Z,14.30
2018-10-09T08:59:03.255Z,12.70
2018-10-09T09:00:07.329Z,15.43
2018-10-09T09:01:10.669Z,16.12
2018-10-09T09:02:14.387Z,22.50
2018-10-09T09:03:17.786Z,15.30
2018-10-09T09:04:21.316Z,19.57
2018-10-09T09:05:24.719Z,16.40
2018-10-09T09:06:28.107Z,15.68
2018-10-09T09:07:31.504Z,13.15
2018-10-09T09:08:34.972Z,17.48
2018-10-09T09:09:38.423Z,16.52
2018-10-09T09:10:41.843Z,16.42
2018-10-09T09:11:45.220Z,16.87
2018-10-09T09:12:48.631Z,19.92
2018-10-09T09:13:52.015Z,13.08
2018-10-09T09:14:55.444Z,15.08
2018-10-09T09:15:58.840Z,17.27
2018-10-09T09:17:02.231Z,13.85
2018-10-09T09:18:05.990Z,14.45
2018-10-09T09:19:09.366Z,14.60
2018-10-09T09:20:12.756Z,19.87
2018-10-09T09:21:16.253Z,14.23
2018-10-09T09:22:19.577Z,17.17
2018-10-09T09:23:23.003Z,16.75
2018-10-09T09:24:26.393Z,14.33
2018-10-09T09:25:30.688Z,17.95
2018-10-09T09:26:34.106Z,18.20
2018-10-09T09:27:37.584Z,16.50
2018-10-09T09:28:40.936Z,16.77
2018-10-09T09:29:44.316Z,15.58
2018-10-09T09:30:47.699Z,16.48
2018-10-09T09:31:51.084Z,16.65
2018-10-09T09:32:54.504Z,14.87
2018-10-09T09:33:57.964Z,21.75
2018-10-09T09:35:01.356Z,20.40
2018-10-09T09:36:04.767Z,14.78
2018-10-09T09:37:08.164Z,16.48
2018-10-09T09:38:11.581Z,18.20
2018-10-09T09:39:15.159Z,18.45
2018-10-09T09:40:18.364Z,20.43
2018-10-09T09:41:21.816Z,16.42
2018-10-09T09:42:25.564Z,14.63
2018-10-09T09:43:28.995Z,17.77
2018-10-09T09:44:32.403Z,15.95
2018-10-09T09:45:35.839Z,17.45
2018-10-09T09:46:39.196Z,18.80
2018-10-09T09:47:42.632Z,17.25
2018-10-09T09:48:46.032Z,15.10
2018-10-09T09:49:49.428Z,22.75
2018-10-09T09:50:52.833Z,20.80
2018-10-09T09:51:56.223Z,19.73
2018-10-09T09:52:59.572Z,18.15
2018-10-09T09:54:02.966Z,21.15
2018-10-09T09:55:06.386Z,19.37
2018-10-09T09:56:09.780Z,30.30
2018-10-09T09:57:13.191Z,71.45
2018-10-09T09:58:16.651Z,37.83
2018-10-09T09:59:19.975Z,36.28
2018-10-09T10:00:28.717Z,21.25
2018-10-09T10:01:37.500Z,20.60
2018-10-09T10:02:41.010Z,20.40
2018-10-09T10:03:44.447Z,22.58
2018-10-09T10:04:47.794Z,22.50
2018-10-09T10:05:51.236Z,22.17
2018-10-09T10:06:54.649Z,24.27
2018-10-09T10:07:58.069Z,25.32
2018-10-09T10:09:01.448Z,18.80
2018-10-09T10:10:04.904Z,20.95
2018-10-09T10:11:08.303Z,20.97
2018-10-09T10:12:11.734Z,22.73
2018-10-09T10:13:15.200Z,21.68
2018-10-09T10:14:18.591Z,26.02
2018-10-09T10:15:21.981Z,25.60
2018-10-09T10:16:25.353Z,21.50
2018-10-09T10:17:28.755Z,17.62
2018-10-09T10:18:32.176Z,19.20
2018-10-09T10:19:35.559Z,20.30
2018-10-09T10:20:38.977Z,27.87
2018-10-09T10:21:42.372Z,29.42
2018-10-09T10:22:45.766Z,23.98
2018-10-09T10:23:49.164Z,24.20
2018-10-09T10:24:52.553Z,23.47
2018-10-09T10:25:55.977Z,32.15
2018-10-09T10:26:59.376Z,19.90
2018-10-09T10:28:02.756Z,18.75
2018-10-09T10:29:06.589Z,20.40
2018-10-09T10:30:09.996Z,15.98
2018-10-09T10:31:13.431Z,18.70
2018-10-09T10:32:16.867Z,16.45
2018-10-09T10:33:20.265Z,66.37
2018-10-09T10:34:23.627Z,41.92
2018-10-09T10:35:27.003Z,40.67
2018-10-09T10:36:30.411Z,27.50
2018-10-09T10:37:33.769Z,24.98
2018-10-09T10:38:37.223Z,21.93
2018-10-09T10:39:40.615Z,18.30
2018-10-09T10:40:44.006Z,21.30
2018-10-09T10:41:47.400Z,20.72
2018-10-09T10:42:50.836Z,17.00
2018-10-09T10:43:54.210Z,16.52
2018-10-09T10:44:57.597Z,18.98
2018-10-09T10:46:01.148Z,19.55
2018-10-09T10:47:04.539Z,22.10
2018-10-09T10:48:07.922Z,32.90
2018-10-09T10:49:13.460Z,24.55
2018-10-09T10:50:16.921Z,25.05
2018-10-09T10:51:20.298Z,19.55
2018-10-09T10:52:23.696Z,22.27
2018-10-09T10:53:27.064Z,21.70
2018-10-09T10:54:30.437Z,25.35
2018-10-09T10:55:33.817Z,19.27
2018-10-09T10:56:37.373Z,18.37
2018-10-09T10:57:40.766Z,21.90
2018-10-09T10:58:44.133Z,20.77
2018-10-09T10:59:47.497Z,18.17
2018-10-09T11:00:50.868Z,21.27
2018-10-09T11:01:54.337Z,16.95
2018-10-09T11:02:57.689Z,16.23
2018-10-09T11:04:01.074Z,17.35
2018-10-09T11:05:04.500Z,20.60
2018-10-09T11:06:08.044Z,19.37
2018-10-09T11:07:11.428Z,19.85
2018-10-09T11:08:14.860Z,17.35
2018-10-09T11:09:18.243Z,17.40
2018-10-09T11:10:21.640Z,19.87
2018-10-09T11:11:25.875Z,14.80
2018-10-09T11:12:29.256Z,18.00
2018-10-09T11:13:32.725Z,16.90
2018-10-09T11:14:36.145Z,18.37
2018-10-09T11:15:39.538Z,16.30
2018-10-09T11:16:42.922Z,15.70
2018-10-09T11:17:46.324Z,14.80
2018-10-09T11:18:49.736Z,16.25
2018-10-09T11:19:53.143Z,17.95
2018-10-09T11:20:56.616Z,19.80
2018-10-09T11:22:00.183Z,16.57
2018-10-09T11:23:03.577Z,14.90
2018-10-09T11:24:06.972Z,17.45
2018-10-09T11:25:10.369Z,22.55
2018-10-09T11:26:13.837Z,15.88
2018-10-09T11:27:17.220Z,16.60
2018-10-09T11:28:20.612Z,14.87
2018-10-09T11:29:24.005Z,18.75
2018-10-09T11:30:27.384Z,19.27
2018-10-09T11:31:30.841Z,15.90
2018-10-09T11:32:34.352Z,19.50
2018-10-09T11:33:37.644Z,18.15
2018-10-09T11:34:41.039Z,19.45
2018-10-09T11:35:44.584Z,17.55
2018-10-09T11:36:47.970Z,16.55
2018-10-09T11:37:51.860Z,14.58
2018-10-09T11:38:55.248Z,18.30
2018-10-09T11:39:58.648Z,16.37
2018-10-09T11:41:02.104Z,18.37
2018-10-09T11:42:05.545Z,16.15
2018-10-09T11:43:08.932Z,16.95
2018-10-09T11:44:12.333Z,15.20
2018-10-09T11:45:15.749Z,16.77
2018-10-09T11:46:19.125Z,18.85
2018-10-09T11:47:22.515Z,15.65
2018-10-09T11:48:25.897Z,22.40
2018-10-09T11:49:29.352Z,18.17
2018-10-09T11:50:32.816Z,19.23
2018-10-09T11:51:36.396Z,14.93
2018-10-09T11:52:39.856Z,17.23
2018-10-09T11:53:43.257Z,16.07
2018-10-09T11:54:46.643Z,16.05
2018-10-09T11:55:50.048Z,16.75
2018-10-09T11:56:53.440Z,15.78
2018-10-09T11:57:56.849Z,20.10
2018-10-09T11:59:00.301Z,15.80
2018-10-09T12:00:04.165Z,19.55
2018-10-09T12:01:09.076Z,19.98
2018-10-09T12:02:12.497Z,15.00
2018-10-09T12:03:15.889Z,15.58
2018-10-09T12:04:19.269Z,19.62
2018-10-09T12:05:22.660Z,16.05
2018-10-09T12:06:26.073Z,13.98
2018-10-09T12:07:29.456Z,17.32
2018-10-09T12:08:32.891Z,15.80
2018-10-09T12:09:36.279Z,12.47
2018-10-09T12:10:39.666Z,17.05
2018-10-09T12:11:43.204Z,15.30
2018-10-09T12:12:46.607Z,18.52
2018-10-09T12:13:49.989Z,14.33
2018-10-09T12:14:53.437Z,12.70
2018-10-09T12:15:56.935Z,18.35
2018-10-09T12:17:00.292Z,17.77
2018-10-09T12:18:03.669Z,14.95
2018-10-09T12:19:07.044Z,17.23
2018-10-09T12:20:10.420Z,16.12
2018-10-09T12:21:13.857Z,17.70
2018-10-09T12:22:17.250Z,16.20
2018-10-09T12:23:20.662Z,20.17
2018-10-09T12:24:24.045Z,18.80
2018-10-09T12:25:27.452Z,16.70
2018-10-09T12:26:30.824Z,18.30
2018-10-09T12:27:34.301Z,14.05
2018-10-09T12:28:37.717Z,18.60
2018-10-09T12:29:41.097Z,16.77
2018-10-09T12:30:44.485Z,21.65
2018-10-09T12:31:47.877Z,13.98
2018-10-09T12:32:51.306Z,20.60
2018-10-09T12:33:54.663Z,14.87
2018-10-09T12:34:58.302Z,15.38
2018-10-09T12:36:01.687Z,15.18
2018-10-09T12:37:05.072Z,16.97
2018-10-09T12:38:08.501Z,13.22
2018-10-09T12:39:13.474Z,16.30
2018-10-09T12:40:16.860Z,11.73
2018-10-09T12:41:20.224Z,11.50
2018-10-09T12:42:23.633Z,16.97
2018-10-09T12:43:27.044Z,12.90
2018-10-09T12:44:30.491Z,14.07
2018-10-09T12:45:33.801Z,17.45
2018-10-09T12:46:37.530Z,14.43
2018-10-09T12:47:40.912Z,13.08
2018-10-09T12:48:44.328Z,13.38
2018-10-09T12:49:47.692Z,11.60
2018-10-09T12:50:51.075Z,15.00
2018-10-09T12:51:54.447Z,14.38
2018-10-09T12:52:57.869Z,13.08
2018-10-09T12:54:01.309Z,13.32
2018-10-09T12:55:04.690Z,14.87
2018-10-09T12:56:08.096Z,15.95
2018-10-09T12:57:11.823Z,15.43
2018-10-09T12:58:15.136Z,15.70
2018-10-09T12:59:18.554Z,12.47
2018-10-09T13:00:22.005Z,12.82
2018-10-09T13:01:25.381Z,14.15
2018-10-09T13:02:28.825Z,13.62
2018-10-09T13:03:32.225Z,13.38
2018-10-09T13:04:35.624Z,13.65
2018-10-09T13:05:39.020Z,14.30
2018-10-09T13:06:42.423Z,13.62
2018-10-09T13:07:45.812Z,15.00
2018-10-09T13:08:49.188Z,14.68
2018-10-09T13:09:52.688Z,15.25
2018-10-09T13:10:56.118Z,15.38
2018-10-09T13:11:59.500Z,13.08
2018-10-09T13:13:02.902Z,13.32
2018-10-09T13:14:06.312Z,19.48
2018-10-09T13:15:10.133Z,18.80
2018-10-09T13:16:13.577Z,13.48
2018-10-09T13:17:17.004Z,14.78
2018-10-09T13:18:20.328Z,15.03
2018-10-09T13:19:23.731Z,15.83
2018-10-09T13:20:27.153Z,19.60
2018-10-09T13:21:30.909Z,14.45
2018-10-09T13:22:34.239Z,12.93
2018-10-09T13:23:37.469Z,18.80
2018-10-09T13:24:40.847Z,18.70
2018-10-09T13:25:44.287Z,14.30
2018-10-09T13:26:47.721Z,12.10
2018-10-09T13:27:51.109Z,13.80
2018-10-09T13:28:54.501Z,14.07
2018-10-09T13:29:57.893Z,14.07
2018-10-09T13:31:01.323Z,13.70
2018-10-09T13:32:04.710Z,13.18
2018-10-09T13:33:08.172Z,14.25
2018-10-09T13:34:11.892Z,24.63
2018-10-09T13:35:15.233Z,13.83
2018-10-09T13:36:18.637Z,15.63
2018-10-09T13:37:22.026Z,10.88
2018-10-09T13:38:25.403Z,11.30
2018-10-09T13:39:28.845Z,12.70
2018-10-09T13:40:32.238Z,14.63
2018-10-09T13:41:35.655Z,12.70
2018-10-09T13:42:39.041Z,10.03